Elk River, Minnesota
Current Conditions -  °F | °C
As of 4:34 PM on Sunday 23 Nov 2014 (Local Time) from KPNM Reporting Station
Light Rain Light Rain  
Wind Chill:   Ceiling: 9000
Heat Index:   Visibility: 5mi
Dew Point:   Wind: 5mph
Humidity: 93%   Direction: 280°W
Pressure: 29.39"   Gusts: NA
Location:  45.31°N, 93.57°W
Report Text: KPNM 232234Z AUTO 28004KT 5SM -RA SCT044 OVC090 03/02 A2939 RMK AO2
Loading
Personal Weather Stations






























Interactive Weather Map New forecast layout! Learn more

10-Day Weather Forecast

Advertisements
Track Severe Weather on mobile